createdAt,value
2019-04-11T00:00:45.855Z,100188.63
2019-04-11T00:03:17.432Z,100186.05
2019-04-11T00:05:47.855Z,100183.47
2019-04-11T00:08:19.585Z,100182.19
2019-04-11T00:10:50.182Z,100183.46
2019-04-11T00:13:24.369Z,100184.69
2019-04-11T00:15:52.974Z,100182.05
2019-04-11T00:18:23.502Z,100186.34
2019-04-11T00:20:53.903Z,100188.09
2019-04-11T00:23:24.242Z,100180.30
2019-04-11T00:25:55.829Z,100178.98
2019-04-11T00:28:27.765Z,100183.34
2019-04-11T00:30:58.795Z,100180.78
2019-04-11T00:33:29.943Z,100185.03
2019-04-11T00:36:02.511Z,100188.02
2019-04-11T00:38:34.005Z,100187.52
2019-04-11T00:41:04.776Z,100186.73
2019-04-11T00:43:40.351Z,100182.38
2019-04-11T00:46:09.929Z,100189.22
2019-04-11T00:48:40.387Z,100190.45
2019-04-11T00:51:11.838Z,100193.08
2019-04-11T00:53:42.415Z,100189.13
2019-04-11T00:56:13.176Z,100189.16
2019-04-11T00:58:43.973Z,100190.02
2019-04-11T01:01:15.572Z,100190.78
2019-04-11T01:03:46.062Z,100188.59
2019-04-11T01:06:16.454Z,100183.92
2019-04-11T01:08:46.786Z,100187.39
2019-04-11T01:11:17.070Z,100197.69
2019-04-11T01:13:51.819Z,100194.27
2019-04-11T01:16:41.272Z,100197.69
2019-04-11T01:19:12.112Z,100199.73
2019-04-11T01:21:42.827Z,100203.19
2019-04-11T01:24:13.194Z,100202.35
2019-04-11T01:26:43.625Z,100207.05
2019-04-11T01:29:15.462Z,100202.34
2019-04-11T01:31:49.540Z,100203.17
2019-04-11T01:34:22.712Z,100201.01
2019-04-11T01:36:53.413Z,100197.56
2019-04-11T01:39:35.060Z,100205.25
2019-04-11T01:42:06.907Z,100210.36
2019-04-11T01:44:37.262Z,100214.64
2019-04-11T01:47:10.773Z,100209.49
2019-04-11T01:49:41.276Z,100203.84
2019-04-11T01:52:11.962Z,100206.34
2019-04-11T01:54:42.108Z,100202.91
2019-04-11T01:57:13.870Z,100204.16
2019-04-11T01:59:44.246Z,100211.41
2019-04-11T02:02:42.540Z,100214.42
2019-04-11T02:05:32.716Z,100210.50
2019-04-11T02:08:03.489Z,100213.47
2019-04-11T02:10:34.904Z,100213.00
2019-04-11T02:13:05.897Z,100222.75
2019-04-11T02:15:36.633Z,100221.39
2019-04-11T02:18:07.588Z,100220.13
2019-04-11T02:20:38.977Z,100225.72
2019-04-11T02:23:32.415Z,100223.41
2019-04-11T02:26:09.922Z,100226.90
2019-04-11T02:28:42.562Z,100225.96
2019-04-11T02:31:20.459Z,100233.20
2019-04-11T02:33:51.349Z,100232.83
2019-04-11T02:36:22.460Z,100235.28
2019-04-11T02:38:55.326Z,100236.94
2019-04-11T02:41:25.431Z,100231.41
2019-04-11T02:43:57.474Z,100240.64
2019-04-11T02:46:35.587Z,100241.19
2019-04-11T02:49:01.517Z,100247.20
2019-04-11T02:51:34.349Z,100245.92
2019-04-11T02:54:06.637Z,100245.83
2019-04-11T02:56:37.891Z,100252.66
2019-04-11T02:59:09.051Z,100252.26
2019-04-11T03:01:40.085Z,100253.00
2019-04-11T03:04:10.732Z,100252.09
2019-04-11T03:06:41.791Z,100261.09
2019-04-11T03:09:13.291Z,100258.89
2019-04-11T03:11:45.123Z,100259.84
2019-04-11T03:14:16.920Z,100265.23
2019-04-11T03:16:57.459Z,100269.95
2019-04-11T03:19:35.694Z,100276.35
2019-04-11T03:21:52.752Z,100277.81
2019-04-11T03:24:26.491Z,100283.87
2019-04-11T03:27:00.350Z,100280.47
2019-04-11T03:29:31.487Z,100285.95
2019-04-11T03:32:52.090Z,100294.03
2019-04-11T03:35:37.835Z,100292.69
2019-04-11T03:37:38.645Z,100305.05
2019-04-11T03:39:59.235Z,100299.45
2019-04-11T03:42:28.533Z,100300.63
2019-04-11T03:44:54.889Z,100300.87
2019-04-11T03:47:34.186Z,100302.67
2019-04-11T03:49:58.778Z,100304.36
2019-04-11T03:52:24.253Z,100308.11
2019-04-11T03:54:56.858Z,100307.32
2019-04-11T03:57:29.892Z,100317.10
2019-04-11T04:00:01.718Z,100315.76
2019-04-11T04:02:34.694Z,100322.14
2019-04-11T04:05:06.724Z,100323.39
2019-04-11T04:07:38.240Z,100326.33
2019-04-11T04:10:13.094Z,100334.00
2019-04-11T04:12:43.098Z,100333.34
2019-04-11T04:15:44.320Z,100341.84
2019-04-11T04:18:23.870Z,100347.86
2019-04-11T04:21:18.099Z,100343.45
2019-04-11T04:23:51.870Z,100354.48
2019-04-11T04:26:22.969Z,100356.84
2019-04-11T04:28:53.628Z,100356.48
2019-04-11T04:31:24.445Z,100358.27
2019-04-11T04:33:55.539Z,100371.39
2019-04-11T04:36:27.324Z,100361.05
2019-04-11T04:38:59.284Z,100366.56
2019-04-11T04:41:42.991Z,100366.89
2019-04-11T04:44:06.481Z,100369.31
2019-04-11T04:46:54.779Z,100368.92
2019-04-11T04:49:11.010Z,100369.85
2019-04-11T04:51:41.619Z,100374.98
2019-04-11T04:54:14.196Z,100377.23
2019-04-11T04:56:45.995Z,100384.40
2019-04-11T04:59:16.737Z,100388.39
2019-04-11T05:01:59.362Z,100394.06
2019-04-11T05:04:29.715Z,100395.88
2019-04-11T05:07:01.099Z,100400.61
2019-04-11T05:09:32.020Z,100396.04
2019-04-11T05:12:03.412Z,100401.18
2019-04-11T05:14:35.069Z,100396.50
2019-04-11T05:17:06.721Z,100401.84
2019-04-11T05:19:40.445Z,100401.11
2019-04-11T05:22:10.569Z,100401.70
2019-04-11T05:24:41.087Z,100404.42
2019-04-11T05:27:12.567Z,100409.34
2019-04-11T05:29:43.895Z,100405.75
2019-04-11T05:32:15.511Z,100414.84
2019-04-11T05:34:45.874Z,100409.91
2019-04-11T05:37:16.868Z,100416.52
2019-04-11T05:39:48.244Z,100414.09
2019-04-11T05:42:19.977Z,100421.94
2019-04-11T05:44:51.512Z,100411.00
2019-04-11T05:47:21.882Z,100426.03
2019-04-11T05:50:09.686Z,100422.73
2019-04-11T05:52:37.836Z,100426.83
2019-04-11T05:55:11.900Z,100421.17
2019-04-11T05:57:44.775Z,100425.62
2019-04-11T06:00:23.513Z,100421.89
2019-04-11T06:03:01.762Z,100431.95
2019-04-11T06:05:59.846Z,100433.25
2019-04-11T06:08:30.750Z,100429.06
2019-04-11T06:11:20.856Z,100427.97
2019-04-11T06:14:07.395Z,100427.69
2019-04-11T06:16:45.682Z,100426.79
2019-04-11T06:19:30.627Z,100427.02
2019-04-11T06:22:06.673Z,100429.14
2019-04-11T06:25:06.706Z,100446.78
2019-04-11T06:27:53.685Z,100443.11
2019-04-11T06:30:48.718Z,100446.91
2019-04-11T06:33:32.185Z,100443.54
2019-04-11T06:36:21.600Z,100447.77
2019-04-11T06:39:02.968Z,100452.31
2019-04-11T06:41:57.040Z,100455.52
2019-04-11T06:44:46.220Z,100452.79
2019-04-11T06:47:34.700Z,100461.05
2019-04-11T06:50:19.537Z,100455.00
2019-04-11T06:52:50.899Z,100454.73
2019-04-11T06:55:30.904Z,100450.73
2019-04-11T06:58:06.769Z,100458.57
2019-04-11T07:00:39.105Z,100456.14
2019-04-11T07:03:19.798Z,100464.30
2019-04-11T07:05:42.640Z,100459.09
2019-04-11T07:08:13.818Z,100483.14
2019-04-11T07:10:49.483Z,100451.92
2019-04-11T07:13:41.814Z,100457.45
2019-04-11T07:16:13.331Z,100494.89
2019-04-11T07:19:15.578Z,100468.31
2019-04-11T07:21:46.163Z,100472.15
2019-04-11T07:24:25.406Z,100467.05
2019-04-11T07:27:01.205Z,100465.75
2019-04-11T07:29:51.577Z,100491.47
2019-04-11T07:32:25.721Z,100471.22
2019-04-11T07:35:13.325Z,100481.17
2019-04-11T07:37:49.344Z,100477.78
2019-04-11T07:40:39.551Z,100471.34
2019-04-11T07:43:13.921Z,100469.61
2019-04-11T07:46:15.614Z,100474.36
2019-04-11T07:48:46.920Z,100469.23
2019-04-11T07:51:27.998Z,100471.81
2019-04-11T07:54:00.310Z,100477.02
2019-04-11T07:56:46.353Z,100487.35
2019-04-11T07:59:33.916Z,100483.50
2019-04-11T08:02:33.350Z,100481.79
2019-04-11T08:05:21.596Z,100482.16
2019-04-11T08:08:30.139Z,100472.72
2019-04-11T08:11:14.173Z,100493.41
2019-04-11T08:14:06.476Z,100477.03
2019-04-11T08:17:04.612Z,100504.64
2019-04-11T08:19:59.859Z,100469.69
2019-04-11T08:22:35.179Z,100469.12
2019-04-11T08:25:24.947Z,100496.88
2019-04-11T08:28:04.114Z,100475.69
2019-04-11T08:30:39.954Z,100481.73
2019-04-11T08:33:10.822Z,100479.42
2019-04-11T08:35:59.977Z,100494.71
2019-04-11T08:38:32.691Z,100470.09
2019-04-11T08:41:33.872Z,100466.59
2019-04-11T08:44:19.508Z,100479.59
2019-04-11T08:46:55.780Z,100490.27
2019-04-11T08:49:35.257Z,100465.27
2019-04-11T08:52:14.343Z,100458.34
2019-04-11T08:55:10.392Z,100469.89
2019-04-11T08:57:44.515Z,100472.89
2019-04-11T09:00:55.785Z,100469.08
2019-04-11T09:03:45.230Z,100467.78
2019-04-11T09:06:21.198Z,100469.05
2019-04-11T09:09:20.926Z,100494.31
2019-04-11T09:11:54.173Z,100465.30
2019-04-11T09:14:46.518Z,100475.60
2019-04-11T09:17:30.318Z,100492.51
2019-04-11T09:20:25.121Z,100482.94
2019-04-11T09:23:13.418Z,100472.66
2019-04-11T09:26:01.807Z,100470.69
2019-04-11T09:28:51.654Z,100467.05
2019-04-11T09:31:41.917Z,100459.60
2019-04-11T09:34:41.818Z,100473.02
2019-04-11T09:37:33.811Z,100485.28
2019-04-11T09:40:24.473Z,100463.09
2019-04-11T09:43:15.815Z,100465.55
2019-04-11T09:46:24.101Z,100455.95
2019-04-11T09:49:16.940Z,100457.34
2019-04-11T09:52:08.796Z,100450.84
2019-04-11T09:54:56.796Z,100456.45
2019-04-11T09:57:46.213Z,100457.13
2019-04-11T10:00:41.508Z,100457.37
2019-04-11T10:03:19.700Z,100454.34
2019-04-11T10:06:02.956Z,100454.73
2019-04-11T10:08:49.152Z,100473.16
2019-04-11T10:11:54.562Z,100456.84
2019-04-11T10:14:27.446Z,100475.30
2019-04-11T10:17:26.853Z,100450.42
2019-04-11T10:20:04.509Z,100445.66
2019-04-11T10:22:49.055Z,100450.25
2019-04-11T10:25:39.377Z,100460.17
2019-04-11T10:28:29.496Z,100453.17
2019-04-11T10:31:12.483Z,100457.84
2019-04-11T10:33:53.735Z,100445.08
2019-04-11T10:36:49.589Z,100451.31
2019-04-11T10:39:54.560Z,100450.53
2019-04-11T10:42:26.772Z,100460.34
2019-04-11T10:45:26.723Z,100442.91
2019-04-11T10:47:58.801Z,100454.28
2019-04-11T10:50:46.997Z,100452.94
2019-04-11T10:53:17.969Z,100428.77
2019-04-11T10:56:10.684Z,100438.27
2019-04-11T10:59:07.023Z,100441.66
2019-04-11T11:01:55.996Z,100448.19
2019-04-11T11:04:38.882Z,100440.70
2019-04-11T11:07:24.628Z,100456.36
2019-04-11T11:10:12.419Z,100449.80
2019-04-11T11:13:13.942Z,100447.13
2019-04-11T11:15:56.164Z,100438.56
2019-04-11T11:19:15.631Z,100448.43
2019-04-11T11:21:29.410Z,100440.19
2019-04-11T11:24:19.872Z,100452.70
2019-04-11T11:26:53.556Z,100462.31
2019-04-11T11:29:45.411Z,100456.61
2019-04-11T11:32:34.010Z,100451.56
2019-04-11T11:35:22.456Z,100458.19
2019-04-11T11:38:01.823Z,100467.04
2019-04-11T11:41:03.903Z,100455.50
2019-04-11T11:43:35.492Z,100459.83
2019-04-11T11:46:36.789Z,100455.30
2019-04-11T11:49:23.507Z,100463.33
2019-04-11T11:52:08.987Z,100468.53
2019-04-11T11:54:48.052Z,100461.33
2019-04-11T11:57:30.822Z,100459.36
2019-04-11T12:00:23.685Z,100466.06
2019-04-11T12:03:01.865Z,100473.98
2019-04-11T12:05:38.878Z,100471.66
2019-04-11T12:08:30.820Z,100470.33
2019-04-11T12:11:08.017Z,100465.24
2019-04-11T12:14:02.041Z,100462.59
2019-04-11T12:17:03.831Z,100464.02
2019-04-11T12:19:48.866Z,100459.51
2019-04-11T12:22:10.646Z,100465.32
2019-04-11T12:24:46.277Z,100451.64
2019-04-11T12:27:45.780Z,100453.11
2019-04-11T12:30:32.765Z,100452.70
2019-04-11T12:33:23.276Z,100448.44
2019-04-11T12:35:59.082Z,100457.37
2019-04-11T12:38:42.575Z,100449.27
2019-04-11T12:41:50.695Z,100453.33
2019-04-11T12:44:51.752Z,100454.80
2019-04-11T12:47:24.413Z,100453.78
2019-04-11T12:50:08.338Z,100446.09
2019-04-11T12:53:03.920Z,100447.38
2019-04-11T12:55:52.155Z,100433.30
2019-04-11T12:58:47.515Z,100441.93
2019-04-11T13:01:35.967Z,100443.11
2019-04-11T13:04:30.314Z,100439.09
2019-04-11T13:07:12.520Z,100436.17
2019-04-11T13:09:53.785Z,100430.09
2019-04-11T13:12:54.835Z,100416.08
2019-04-11T13:15:50.027Z,100427.48
2019-04-11T13:18:51.298Z,100419.72
2019-04-11T13:21:52.405Z,100431.06
2019-04-11T13:24:50.402Z,100419.44
2019-04-11T13:27:22.860Z,100423.40
2019-04-11T13:30:12.324Z,100428.42
2019-04-11T13:33:00.919Z,100416.41
2019-04-11T13:36:05.507Z,100415.72
2019-04-11T13:38:43.860Z,100409.48
2019-04-11T13:41:32.716Z,100413.50
2019-04-11T13:44:15.008Z,100419.87
2019-04-11T13:47:03.236Z,100425.55
2019-04-11T13:49:52.854Z,100416.58
2019-04-11T13:52:42.052Z,100414.67
2019-04-11T13:55:16.138Z,100426.16
2019-04-11T13:58:08.450Z,100415.97
2019-04-11T14:00:43.383Z,100422.48
2019-04-11T14:03:32.997Z,100436.91
2019-04-11T14:06:08.982Z,100427.86
2019-04-11T14:08:56.930Z,100409.58
2019-04-11T14:11:27.892Z,100405.24
2019-04-11T14:14:10.321Z,100411.28
2019-04-11T14:16:46.452Z,100414.17
2019-04-11T14:19:34.419Z,100409.71
2019-04-11T14:22:08.194Z,100401.21
2019-04-11T14:25:05.316Z,100395.84
2019-04-11T14:27:38.006Z,100404.36
2019-04-11T14:30:26.114Z,100400.70
2019-04-11T14:32:56.554Z,100413.34
2019-04-11T14:35:48.070Z,100402.83
2019-04-11T14:38:19.548Z,100420.25
2019-04-11T14:41:07.200Z,100405.38
2019-04-11T14:43:45.850Z,100402.34
2019-04-11T14:46:36.691Z,100416.95
2019-04-11T14:49:13.145Z,100410.67
2019-04-11T14:52:02.408Z,100411.56
2019-04-11T14:54:38.907Z,100413.97
2019-04-11T14:57:28.429Z,100418.94
2019-04-11T15:00:15.533Z,100409.68
2019-04-11T15:03:16.665Z,100410.69
2019-04-11T15:06:05.851Z,100399.34
2019-04-11T15:08:47.443Z,100404.13
2019-04-11T15:11:42.063Z,100396.75
2019-04-11T15:14:38.841Z,100403.05
2019-04-11T15:17:26.428Z,100406.87
2019-04-11T15:20:03.230Z,100402.47
2019-04-11T15:22:52.287Z,100396.47
2019-04-11T15:25:45.744Z,100402.38
2019-04-11T15:28:29.424Z,100405.24
2019-04-11T15:31:04.419Z,100402.48
2019-04-11T15:33:56.321Z,100402.00
2019-04-11T15:36:27.875Z,100398.09
2019-04-11T15:39:43.939Z,100399.47
2019-04-11T15:42:09.275Z,100403.87
2019-04-11T15:44:55.760Z,100403.84
2019-04-11T15:47:25.900Z,100397.34
2019-04-11T15:50:15.006Z,100395.66
2019-04-11T15:52:51.410Z,100400.82
2019-04-11T15:55:59.114Z,100399.47
2019-04-11T15:58:37.175Z,100396.92
2019-04-11T16:01:25.576Z,100398.59
2019-04-11T16:04:01.415Z,100391.36
2019-04-11T16:06:49.754Z,100405.66
2019-04-11T16:09:21.090Z,100398.72
2019-04-11T16:11:56.583Z,100394.80
2019-04-11T16:14:31.508Z,100397.30
2019-04-11T16:17:35.641Z,100408.41
2019-04-11T16:20:21.481Z,100423.52
2019-04-11T16:23:10.659Z,100390.66
2019-04-11T16:25:51.119Z,100405.87
2019-04-11T16:28:40.498Z,100399.78
2019-04-11T16:31:13.959Z,100400.26
2019-04-11T16:34:03.323Z,100416.77
2019-04-11T16:37:08.542Z,100416.30
2019-04-11T16:40:16.386Z,100411.10
2019-04-11T16:42:53.615Z,100415.02
2019-04-11T16:45:30.088Z,100415.44
2019-04-11T16:48:02.184Z,100425.02
2019-04-11T16:50:33.039Z,100428.08
2019-04-11T16:53:03.797Z,100432.08
2019-04-11T16:55:36.661Z,100430.78
2019-04-11T16:58:06.860Z,100436.90
2019-04-11T17:00:37.670Z,100435.62
2019-04-11T17:03:07.961Z,100441.27
2019-04-11T17:05:39.875Z,100433.92
2019-04-11T17:08:28.360Z,100434.78
2019-04-11T17:11:19.015Z,100435.30
2019-04-11T17:13:49.397Z,100436.20
2019-04-11T17:16:21.474Z,100451.33
2019-04-11T17:18:51.745Z,100444.86
2019-04-11T17:21:23.319Z,100452.31
2019-04-11T17:23:53.642Z,100448.42
2019-04-11T17:26:25.665Z,100451.50
2019-04-11T17:28:56.286Z,100456.27
2019-04-11T17:31:27.493Z,100453.70
2019-04-11T17:34:01.462Z,100455.91
2019-04-11T17:36:33.681Z,100457.25
2019-04-11T17:39:07.020Z,100463.74
2019-04-11T17:41:37.062Z,100464.19
2019-04-11T17:44:07.351Z,100466.34
2019-04-11T17:46:37.620Z,100472.84
2019-04-11T17:49:08.197Z,100472.44
2019-04-11T17:51:38.569Z,100473.33
2019-04-11T17:54:08.920Z,100471.67
2019-04-11T17:56:39.688Z,100469.08
2019-04-11T17:59:12.095Z,100477.31
2019-04-11T18:01:42.059Z,100471.71
2019-04-11T18:04:13.600Z,100479.97
2019-04-11T18:06:46.953Z,100481.26
2019-04-11T18:09:16.400Z,100487.73
2019-04-11T18:11:48.136Z,100489.50
2019-04-11T18:14:20.071Z,100490.38
2019-04-11T18:16:52.099Z,100499.90
2019-04-11T18:19:22.535Z,100504.66
2019-04-11T18:21:52.785Z,100504.23
2019-04-11T18:24:25.594Z,100508.11
2019-04-11T18:26:55.828Z,100507.23
2019-04-11T18:29:26.929Z,100508.55
2019-04-11T18:31:57.213Z,100480.46
2019-04-11T18:34:31.568Z,100517.16
2019-04-11T18:37:01.636Z,100525.34
2019-04-11T18:39:33.662Z,100522.31
2019-04-11T18:42:03.924Z,100527.03
2019-04-11T18:44:34.268Z,100530.92
2019-04-11T18:47:08.291Z,100533.08
2019-04-11T18:49:39.591Z,100534.33
2019-04-11T18:52:19.161Z,100537.80
2019-04-11T18:54:43.955Z,100538.64
2019-04-11T18:57:14.529Z,100546.37
2019-04-11T18:59:44.902Z,100552.41
2019-04-11T19:02:15.398Z,100551.97
2019-04-11T19:04:45.682Z,100563.15
2019-04-11T19:07:27.133Z,100563.10
2019-04-11T19:09:48.117Z,100564.80
2019-04-11T19:12:18.805Z,100567.81
2019-04-11T19:14:49.145Z,100569.48
2019-04-11T19:17:19.508Z,100580.63
2019-04-11T19:19:49.892Z,100587.88
2019-04-11T19:22:36.294Z,100585.23
2019-04-11T19:24:53.282Z,100586.50
2019-04-11T19:27:23.561Z,100598.05
2019-04-11T19:29:56.062Z,100596.66
2019-04-11T19:32:27.657Z,100600.46
2019-04-11T19:34:58.680Z,100600.91
2019-04-11T19:37:29.861Z,100603.04
2019-04-11T19:40:00.183Z,100605.55
2019-04-11T19:42:31.536Z,100603.80
2019-04-11T19:45:03.851Z,100606.28
2019-04-11T19:47:34.186Z,100607.17
2019-04-11T19:50:05.318Z,100612.73
2019-04-11T19:52:45.328Z,100610.48
2019-04-11T19:55:25.767Z,100611.75
2019-04-11T19:57:55.933Z,100614.80
2019-04-11T20:00:26.303Z,100620.28
2019-04-11T20:02:56.553Z,100615.90
2019-04-11T20:05:27.096Z,100593.54
2019-04-11T20:07:57.305Z,100626.97
2019-04-11T20:10:30.549Z,100623.25
2019-04-11T20:13:01.929Z,100633.53
2019-04-11T20:15:36.898Z,100634.53
2019-04-11T20:18:03.882Z,100634.55
2019-04-11T20:20:36.851Z,100625.59
2019-04-11T20:23:10.466Z,100619.55
2019-04-11T20:25:38.928Z,100627.76
2019-04-11T20:28:09.138Z,100619.94
2019-04-11T20:30:39.438Z,100628.02
2019-04-11T20:33:09.820Z,100624.61
2019-04-11T20:35:40.668Z,100628.35
2019-04-11T20:38:11.332Z,100629.19
2019-04-11T20:40:43.110Z,100630.85
2019-04-11T20:43:13.870Z,100630.70
2019-04-11T20:45:44.611Z,100631.51
2019-04-11T20:48:14.923Z,100631.10
2019-04-11T20:50:46.519Z,100634.45
2019-04-11T20:53:17.742Z,100636.47
2019-04-11T20:55:48.024Z,100634.70
2019-04-11T20:58:27.438Z,100639.62
2019-04-11T21:00:56.477Z,100641.39
2019-04-11T21:03:29.927Z,100642.53
2019-04-11T21:06:01.559Z,100646.65
2019-04-11T21:08:33.132Z,100641.69
2019-04-11T21:11:04.668Z,100647.92
2019-04-11T21:13:38.078Z,100641.89
2019-04-11T21:16:08.166Z,100650.20
2019-04-11T21:18:38.578Z,100648.05
2019-04-11T21:21:10.214Z,100650.00
2019-04-11T21:23:40.623Z,100656.39
2019-04-11T21:26:11.693Z,100648.61
2019-04-11T21:28:41.956Z,100659.75
2019-04-11T21:31:12.538Z,100654.94
2019-04-11T21:33:42.825Z,100654.86
2019-04-11T21:36:13.373Z,100657.47
2019-04-11T21:38:43.504Z,100657.72
2019-04-11T21:41:13.753Z,100662.36
2019-04-11T21:43:43.843Z,100657.58
2019-04-11T21:46:14.123Z,100658.39
2019-04-11T21:48:44.729Z,100668.17
2019-04-11T21:51:15.023Z,100657.08
2019-04-11T21:53:45.522Z,100659.29
2019-04-11T21:56:18.639Z,100660.03
2019-04-11T21:58:50.163Z,100659.29
2019-04-11T22:01:21.953Z,100663.69
2019-04-11T22:03:57.035Z,100658.05
2019-04-11T22:06:28.068Z,100665.91
2019-04-11T22:08:58.068Z,100662.28
2019-04-11T22:11:28.722Z,100666.07
2019-04-11T22:13:59.050Z,100663.64
2019-04-11T22:16:29.325Z,100669.53
2019-04-11T22:18:59.869Z,100662.72
2019-04-11T22:21:30.526Z,100665.95
2019-04-11T22:24:01.171Z,100666.12
2019-04-11T22:26:31.662Z,100664.17
2019-04-11T22:29:01.913Z,100667.52
2019-04-11T22:31:32.913Z,100678.70
2019-04-11T22:34:21.522Z,100676.09
2019-04-11T22:36:52.103Z,100678.43
2019-04-11T22:39:22.978Z,100673.87
2019-04-11T22:41:53.291Z,100677.58
2019-04-11T22:44:23.682Z,100672.97
2019-04-11T22:46:54.456Z,100675.89
2019-04-11T22:49:25.077Z,100683.49
2019-04-11T22:51:55.301Z,100679.16
2019-04-11T22:54:25.634Z,100683.98
2019-04-11T22:56:55.889Z,100680.59
2019-04-11T22:59:26.357Z,100684.67
2019-04-11T23:02:01.702Z,100687.16
2019-04-11T23:04:32.687Z,100686.14
2019-04-11T23:07:03.181Z,100692.56
2019-04-11T23:09:33.618Z,100689.48
2019-04-11T23:12:03.785Z,100693.24
2019-04-11T23:14:34.463Z,100694.87
2019-04-11T23:17:04.919Z,100691.15
2019-04-11T23:19:35.193Z,100689.56
2019-04-11T23:22:05.443Z,100690.33
2019-04-11T23:24:35.730Z,100690.55
2019-04-11T23:27:05.981Z,100694.78
2019-04-11T23:29:36.216Z,100689.90
2019-04-11T23:32:06.558Z,100702.36
2019-04-11T23:34:37.181Z,100695.14
2019-04-11T23:37:07.765Z,100691.81
2019-04-11T23:39:38.061Z,100695.53
2019-04-11T23:42:08.200Z,100696.20
2019-04-11T23:44:38.570Z,100691.41
2019-04-11T23:47:09.878Z,100697.02
2019-04-11T23:49:40.337Z,100698.69
2019-04-11T23:52:10.609Z,100696.93
2019-04-11T23:54:40.851Z,100696.41
2019-04-11T23:57:11.465Z,100699.73
2019-04-11T23:59:41.647Z,100702.02
